sensor_id;sensor_type;location;lat;lon;timestamp;pressure;altitude;pressure_sealevel;temperature;humidity
35908;BME280;22003;50.320;8.054;2023-02-13T05:02:30;101788.63;;;0.00;100.00
35908;BME280;22003;50.320;8.054;2023-02-13T05:04:56;101784.28;;;-0.09;100.00
35908;BME280;22003;50.320;8.054;2023-02-13T05:07:21;101780.84;;;-0.26;100.00
35908;BME280;22003;50.320;8.054;2023-02-13T05:09:46;101776.50;;;-0.38;100.00
35908;BME280;22003;50.320;8.054;2023-02-13T05:12:11;101779.97;;;-0.49;100.00
35908;BME280;22003;50.320;8.054;2023-02-13T05:14:37;101779.09;;;-0.56;100.00
35908;BME280;22003;50.320;8.054;2023-02-13T05:17:02;101796.47;;;-0.28;100.00
35908;BME280;22003;50.320;8.054;2023-02-13T05:19:27;101779.13;;;-0.44;100.00
35908;BME280;22003;50.320;8.054;2023-02-13T05:21:52;101794.75;;;-0.33;100.00
35908;BME280;22003;50.320;8.054;2023-02-13T05:24:36;101777.38;;;-0.42;100.00
35908;BME280;22003;50.320;8.054;2023-02-13T05:27:01;101799.94;;;-0.33;100.00
35908;BME280;22003;50.320;8.054;2023-02-13T05:29:27;101803.41;;;-0.37;100.00
35908;BME280;22003;50.320;8.054;2023-02-13T05:31:54;101782.56;;;-0.46;100.00
35908;BME280;22003;50.320;8.054;2023-02-13T05:34:20;101809.47;;;-0.41;100.00
35908;BME280;22003;50.320;8.054;2023-02-13T05:36:46;101801.69;;;-0.44;100.00
35908;BME280;22003;50.320;8.054;2023-02-13T05:39:12;101805.13;;;-0.53;100.00
35908;BME280;22003;50.320;8.054;2023-02-13T05:41:37;101812.94;;;-0.65;100.00
35908;BME280;22003;50.320;8.054;2023-02-13T05:44:03;101803.38;;;-0.68;100.00
35908;BME280;22003;50.320;8.054;2023-02-13T05:46:29;101796.44;;;-0.81;100.00
35908;BME280;22003;50.320;8.054;2023-02-13T05:48:54;101792.97;;;-0.94;100.00
35908;BME280;22003;50.320;8.054;2023-02-13T05:51:19;101780.75;;;-1.13;100.00
35908;BME280;22003;50.320;8.054;2023-02-13T05:53:44;101793.78;;;-1.06;100.00
35908;BME280;22003;50.320;8.054;2023-02-13T05:56:10;101802.44;;;-1.10;100.00
35908;BME280;22003;50.320;8.054;2023-02-13T05:58:35;101805.06;;;-0.96;100.00
35908;BME280;22003;50.320;8.054;2023-02-13T06:01:00;101806.81;;;-0.90;100.00
35908;BME280;22003;50.320;8.054;2023-02-13T06:03:27;101790.38;;;-0.66;100.00
35908;BME280;22003;50.320;8.054;2023-02-13T06:05:53;101793.78;;;-1.06;100.00
35908;BME280;22003;50.320;8.054;2023-02-13T06:08:20;101802.44;;;-1.11;100.00
35908;BME280;22003;50.320;8.054;2023-02-13T06:10:46;101791.09;;;-1.28;100.00
35908;BME280;22003;50.320;8.054;2023-02-13T06:13:11;101803.28;;;-1.27;100.00
35908;BME280;22003;50.320;8.054;2023-02-13T06:15:37;101814.53;;;-1.27;100.00
35908;BME280;22003;50.320;8.054;2023-02-13T06:18:02;101786.72;;;-1.40;100.00
35908;BME280;22003;50.320;8.054;2023-02-13T06:20:27;101780.63;;;-1.51;100.00
35908;BME280;22003;50.320;8.054;2023-02-13T06:22:53;101777.22;;;-1.34;100.00
35908;BME280;22003;50.320;8.054;2023-02-13T06:25:18;101785.94;;;-1.27;100.00
35908;BME280;22003;50.320;8.054;2023-02-13T06:27:44;101775.53;;;-1.33;100.00
35908;BME280;22003;50.320;8.054;2023-02-13T06:30:10;101804.16;;;-1.21;100.00
35908;BME280;22003;50.320;8.054;2023-02-13T06:32:35;101805.03;;;-1.14;100.00
35908;BME280;22003;50.320;8.054;2023-02-13T06:35:00;101807.63;;;-1.16;100.00
35908;BME280;22003;50.320;8.054;2023-02-13T06:37:26;101812.91;;;-0.82;100.00
35908;BME280;22003;50.320;8.054;2023-02-13T06:39:51;101798.16;;;-0.91;100.00
35908;BME280;22003;50.320;8.054;2023-02-13T06:42:16;101798.06;;;-1.32;100.00
35908;BME280;22003;50.320;8.054;2023-02-13T06:44:43;101803.28;;;-1.20;100.00
35908;BME280;22003;50.320;8.054;2023-02-13T06:47:08;101768.56;;;-1.37;100.00
35908;BME280;22003;50.320;8.054;2023-02-13T06:49:33;101774.59;;;-1.46;100.00
35908;BME280;22003;50.320;8.054;2023-02-13T06:51:58;101797.13;;;-1.48;100.00
35908;BME280;22003;50.320;8.054;2023-02-13T06:54:24;101793.66;;;-1.48;100.00
35908;BME280;22003;50.320;8.054;2023-02-13T06:56:49;101818.91;;;-1.21;100.00
35908;BME280;22003;50.320;8.054;2023-02-13T06:59:14;101819.66;;;-1.39;100.00
35908;BME280;22003;50.320;8.054;2023-02-13T07:01:39;101802.31;;;-1.46;100.00
35908;BME280;22003;50.320;8.054;2023-02-13T07:04:05;101797.13;;;-1.48;100.00
35908;BME280;22003;50.320;8.054;2023-02-13T07:06:30;101816.22;;;-1.38;100.00
35908;BME280;22003;50.320;8.054;2023-02-13T07:08:55;101824.16;;;-0.89;100.00
35908;BME280;22003;50.320;8.054;2023-02-13T07:11:23;101818.06;;;-1.10;100.00
35908;BME280;22003;50.320;8.054;2023-02-13T07:13:49;101834.53;;;-1.03;100.00
35908;BME280;22003;50.320;8.054;2023-02-13T07:16:14;101821.59;;;-0.74;100.00
35908;BME280;22003;50.320;8.054;2023-02-13T07:18:39;101807.75;;;-0.42;100.00
35908;BME280;22003;50.320;8.054;2023-02-13T07:21:06;101813.81;;;-0.46;100.00
35908;BME280;22003;50.320;8.054;2023-02-13T07:23:31;101819.91;;;-0.44;100.00
35908;BME280;22003;50.320;8.054;2023-02-13T07:26:00;101823.38;;;-0.36;100.00
35908;BME280;22003;50.320;8.054;2023-02-13T07:28:29;101834.66;;;-0.13;100.00
35908;BME280;22003;50.320;8.054;2023-02-13T07:30:55;101825.97;;;-0.10;100.00
35908;BME280;22003;50.320;8.054;2023-02-13T07:33:20;101831.16;;;0.10;100.00
35908;BME280;22003;50.320;8.054;2023-02-13T07:35:47;101839.81;;;0.10;100.00
35908;BME280;22003;50.320;8.054;2023-02-13T07:38:12;101837.19;;;0.30;100.00
35908;BME280;22003;50.320;8.054;2023-02-13T07:40:38;101833.72;;;0.22;100.00
35908;BME280;22003;50.320;8.054;2023-02-13T07:43:03;101817.25;;;0.14;100.00
35908;BME280;22003;50.320;8.054;2023-02-13T07:45:28;101828.50;;;0.25;100.00
35908;BME280;22003;50.320;8.054;2023-02-13T07:47:54;101825.03;;;0.20;100.00
35908;BME280;22003;50.320;8.054;2023-02-13T07:50:20;101832.88;;;0.14;100.00
35908;BME280;22003;50.320;8.054;2023-02-13T07:52:52;101836.34;;;0.20;100.00
35908;BME280;22003;50.320;8.054;2023-02-13T07:55:17;101819.88;;;0.03;100.00
35908;BME280;22003;50.320;8.054;2023-02-13T07:57:43;101821.53;;;0.27;100.00
35908;BME280;22003;50.320;8.054;2023-02-13T08:00:08;101822.34;;;0.49;100.00
35908;BME280;22003;50.320;8.054;2023-02-13T08:02:34;101825.78;;;0.60;100.00
35908;BME280;22003;50.320;8.054;2023-02-13T08:04:59;101825.72;;;0.80;100.00
35908;BME280;22003;50.320;8.054;2023-02-13T08:07:24;101821.41;;;0.73;100.00
35908;BME280;22003;50.320;8.054;2023-02-13T08:09:49;101836.91;;;1.03;100.00
35908;BME280;22003;50.320;8.054;2023-02-13T08:12:34;101829.81;;;1.27;100.00
35908;BME280;22003;50.320;8.054;2023-02-13T08:14:59;101803.56;;;1.45;100.00
35908;BME280;22003;50.320;8.054;2023-02-13T08:17:25;101821.97;;;1.27;100.00
35908;BME280;22003;50.320;8.054;2023-02-13T08:19:50;101828.91;;;1.34;100.00
35908;BME280;22003;50.320;8.054;2023-02-13T08:22:15;101809.59;;;1.53;100.00
35908;BME280;22003;50.320;8.054;2023-02-13T08:25:03;101827.84;;;1.61;100.00
35908;BME280;22003;50.320;8.054;2023-02-13T08:27:28;101828.75;;;1.54;100.00
35908;BME280;22003;50.320;8.054;2023-02-13T08:29:55;101798.00;;;1.85;100.00
35908;BME280;22003;50.320;8.054;2023-02-13T08:32:24;101818.94;;;1.82;100.00
35908;BME280;22003;50.320;8.054;2023-02-13T08:35:08;101835.31;;;1.99;100.00
35908;BME280;22003;50.320;8.054;2023-02-13T08:37:33;101827.47;;;1.99;100.00
35908;BME280;22003;50.320;8.054;2023-02-13T08:39:59;101829.97;;;2.15;100.00
35908;BME280;22003;50.320;8.054;2023-02-13T08:42:24;101809.13;;;2.07;100.00
35908;BME280;22003;50.320;8.054;2023-02-13T08:48:07;101817.63;;;2.29;100.00
35908;BME280;22003;50.320;8.054;2023-02-13T08:50:33;101829.53;;;2.56;100.00
35908;BME280;22003;50.320;8.054;2023-02-13T08:52:58;101833.91;;;2.52;100.00
35908;BME280;22003;50.320;8.054;2023-02-13T08:55:24;101818.06;;;2.64;100.00
35908;BME280;22003;50.320;8.054;2023-02-13T08:57:49;101818.94;;;2.65;100.00
35908;BME280;22003;50.320;8.054;2023-02-13T09:00:15;101841.44;;;2.80;100.00
35908;BME280;22003;50.320;8.054;2023-02-13T09:02:40;101836.16;;;2.83;100.00
35908;BME280;22003;50.320;8.054;2023-02-13T09:05:05;101848.72;;;3.23;100.00
35908;BME280;22003;50.320;8.054;2023-02-13T09:07:30;101830.53;;;3.10;100.00
35908;BME280;22003;50.320;8.054;2023-02-13T09:09:56;101796.47;;;2.47;100.00
35908;BME280;22003;50.320;8.054;2023-02-13T09:12:21;101828.44;;;2.74;100.00
35908;BME280;22003;50.320;8.054;2023-02-13T09:14:46;101830.41;;;2.53;100.00
35908;BME280;22003;50.320;8.054;2023-02-13T09:17:12;101844.69;;;2.97;100.00
35908;BME280;22003;50.320;8.054;2023-02-13T09:19:38;101837.59;;;3.07;100.00
35908;BME280;22003;50.320;8.054;2023-02-13T09:22:03;101858.75;;;3.53;100.00
35908;BME280;22003;50.320;8.054;2023-02-13T09:24:29;101859.69;;;3.49;100.00
35908;BME280;22003;50.320;8.054;2023-02-13T09:26:54;101845.44;;;3.67;100.00
35908;BME280;22003;50.320;8.054;2023-02-13T09:29:20;101851.22;;;3.89;100.00
35908;BME280;22003;50.320;8.054;2023-02-13T09:31:45;101841.00;;;4.21;100.00
35908;BME280;22003;50.320;8.054;2023-02-13T09:34:11;101854.19;;;4.18;100.00
35908;BME280;22003;50.320;8.054;2023-02-13T09:36:36;101832.13;;;4.27;100.00
35908;BME280;22003;50.320;8.054;2023-02-13T09:39:01;101838.28;;;4.26;100.00
35908;BME280;22003;50.320;8.054;2023-02-13T09:41:33;101852.25;;;4.73;100.00
35908;BME280;22003;50.320;8.054;2023-02-13T09:44:05;101814.28;;;4.00;100.00
35908;BME280;22003;50.320;8.054;2023-02-13T09:46:36;101848.34;;;4.49;100.00
35908;BME280;22003;50.320;8.054;2023-02-13T09:49:07;101837.72;;;4.55;100.00
35908;BME280;22003;50.320;8.054;2023-02-13T09:51:35;101841.72;;;4.30;100.00
35908;BME280;22003;50.320;8.054;2023-02-13T09:54:06;101838.25;;;4.74;100.00
35908;BME280;22003;50.320;8.054;2023-02-13T09:56:50;101838.72;;;4.49;100.00
35908;BME280;22003;50.320;8.054;2023-02-13T09:59:34;101843.53;;;4.71;100.00
35908;BME280;22003;50.320;8.054;2023-02-13T10:02:13;101851.19;;;4.82;100.00
35908;BME280;22003;50.320;8.054;2023-02-13T10:04:59;101852.63;;;5.37;100.00
35908;BME280;22003;50.320;8.054;2023-02-13T10:07:32;101841.63;;;5.19;100.00
35908;BME280;22003;50.320;8.054;2023-02-13T10:10:23;101849.91;;;5.41;100.00
35908;BME280;22003;50.320;8.054;2023-02-13T10:15:47;101842.22;;;5.69;100.00
35908;BME280;22003;50.320;8.054;2023-02-13T10:18:40;101831.63;;;6.08;100.00
35908;BME280;22003;50.320;8.054;2023-02-13T10:21:07;101826.44;;;5.69;100.00
35908;BME280;22003;50.320;8.054;2023-02-13T10:26:02;101838.31;;;5.50;100.00
35908;BME280;22003;50.320;8.054;2023-02-13T10:28:33;101840.72;;;5.96;100.00
35908;BME280;22003;50.320;8.054;2023-02-13T10:31:22;101829.06;;;6.05;100.00
35908;BME280;22003;50.320;8.054;2023-02-13T10:33:50;101831.97;;;6.28;100.00
35908;BME280;22003;50.320;8.054;2023-02-13T10:36:19;101840.06;;;6.21;100.00
35908;BME280;22003;50.320;8.054;2023-02-13T10:38:59;101826.31;;;6.42;100.00
35908;BME280;22003;50.320;8.054;2023-02-13T10:53:00;101827.34;;;7.27;100.00
35908;BME280;22003;50.320;8.054;2023-02-13T11:01:08;101806.84;;;7.89;99.12
35908;BME280;22003;50.320;8.054;2023-02-13T11:03:34;101806.69;;;7.94;95.24
35908;BME280;22003;50.320;8.054;2023-02-13T11:06:00;101791.66;;;7.17;97.47
35908;BME280;22003;50.320;8.054;2023-02-13T11:08:37;101814.66;;;7.11;98.72
35908;BME280;22003;50.320;8.054;2023-02-13T11:11:30;101808.34;;;7.17;98.66
35908;BME280;22003;50.320;8.054;2023-02-13T11:16:51;101798.50;;;7.49;99.84
35908;BME280;22003;50.320;8.054;2023-02-13T11:19:24;101797.25;;;7.60;94.34
35908;BME280;22003;50.320;8.054;2023-02-13T11:21:58;101789.44;;;7.84;92.43
35908;BME280;22003;50.320;8.054;2023-02-13T11:24:26;101792.13;;;8.32;92.72
35908;BME280;22003;50.320;8.054;2023-02-13T11:26:57;101782.34;;;8.11;93.16
35908;BME280;22003;50.320;8.054;2023-02-13T11:29:29;101773.88;;;8.26;93.21
35908;BME280;22003;50.320;8.054;2023-02-13T11:32:16;101785.47;;;8.22;92.33
35908;BME280;22003;50.320;8.054;2023-02-13T11:34:42;101769.97;;;8.61;89.87
35908;BME280;22003;50.320;8.054;2023-02-13T11:37:16;101781.91;;;8.48;91.63
35908;BME280;22003;50.320;8.054;2023-02-13T11:39:44;101759.63;;;8.79;86.21
35908;BME280;22003;50.320;8.054;2023-02-13T11:42:21;101763.81;;;8.84;85.78
35908;BME280;22003;50.320;8.054;2023-02-13T11:44:51;101771.94;;;9.45;83.63
35908;BME280;22003;50.320;8.054;2023-02-13T11:47:36;101753.59;;;10.03;81.73
35908;BME280;22003;50.320;8.054;2023-02-13T11:50:03;101750.53;;;9.92;81.03
35908;BME280;22003;50.320;8.054;2023-02-13T11:52:31;101752.06;;;10.18;80.80
35908;BME280;22003;50.320;8.054;2023-02-13T11:55:04;101754.97;;;10.32;80.06
35908;BME280;22003;50.320;8.054;2023-02-13T11:57:33;101751.41;;;10.71;79.84
35908;BME280;22003;50.320;8.054;2023-02-13T12:00:01;101748.41;;;10.60;76.81
35908;BME280;22003;50.320;8.054;2023-02-13T12:02:48;101744.34;;;10.72;78.21
35908;BME280;22003;50.320;8.054;2023-02-13T12:05:22;101735.31;;;10.76;76.43
35908;BME280;22003;50.320;8.054;2023-02-13T12:07:48;101744.22;;;10.15;78.21
35908;BME280;22003;50.320;8.054;2023-02-13T12:13:01;101721.66;;;10.27;79.33
35908;BME280;22003;50.320;8.054;2023-02-13T12:15:35;101739.09;;;9.92;82.79
35908;BME280;22003;50.320;8.054;2023-02-13T12:21:03;101731.38;;;10.66;79.59
35908;BME280;22003;50.320;8.054;2023-02-13T12:26:22;101680.78;;;10.70;77.96
35908;BME280;22003;50.320;8.054;2023-02-13T12:28:57;101719.69;;;11.25;78.61
35908;BME280;22003;50.320;8.054;2023-02-13T12:39:41;101697.53;;;11.43;77.02
35908;BME280;22003;50.320;8.054;2023-02-13T12:42:39;101705.66;;;11.04;77.11
35908;BME280;22003;50.320;8.054;2023-02-13T12:45:17;101688.16;;;10.82;79.04
35908;BME280;22003;50.320;8.054;2023-02-13T12:47:59;101687.50;;;10.96;76.75
35908;BME280;22003;50.320;8.054;2023-02-13T12:50:51;101685.94;;;10.54;78.48
35908;BME280;22003;50.320;8.054;2023-02-13T12:53:31;101681.06;;;10.26;80.08
35908;BME280;22003;50.320;8.054;2023-02-13T12:56:06;101688.91;;;10.09;80.42
35908;BME280;22003;50.320;8.054;2023-02-13T13:01:38;101678.09;;;10.34;79.81
35908;BME280;22003;50.320;8.054;2023-02-13T13:04:15;101681.53;;;10.16;81.79
35908;BME280;22003;50.320;8.054;2023-02-13T13:06:59;101688.34;;;10.21;81.85
35908;BME280;22003;50.320;8.054;2023-02-13T13:15:24;101679.22;;;10.28;82.02
35908;BME280;22003;50.320;8.054;2023-02-13T13:20:57;101676.13;;;10.38;81.58
35908;BME280;22003;50.320;8.054;2023-02-13T13:23:36;101665.03;;;10.48;80.26
35908;BME280;22003;50.320;8.054;2023-02-13T13:26:12;101646.69;;;10.63;81.09
35908;BME280;22003;50.320;8.054;2023-02-13T13:28:45;101655.00;;;10.74;82.21
35908;BME280;22003;50.320;8.054;2023-02-13T13:31:12;101656.13;;;11.04;79.79
35908;BME280;22003;50.320;8.054;2023-02-13T13:33:42;101654.75;;;11.15;79.99
35908;BME280;22003;50.320;8.054;2023-02-13T13:41:46;101640.09;;;10.71;78.00
35908;BME280;22003;50.320;8.054;2023-02-13T13:44:53;101646.53;;;10.84;78.40
35908;BME280;22003;50.320;8.054;2023-02-13T13:47:31;101644.47;;;10.72;79.35
35908;BME280;22003;50.320;8.054;2023-02-13T13:50:01;101606.84;;;10.83;78.40
35908;BME280;22003;50.320;8.054;2023-02-13T13:52:33;101636.34;;;11.12;78.74
35908;BME280;22003;50.320;8.054;2023-02-13T13:55:00;101634.31;;;11.17;78.96
35908;BME280;22003;50.320;8.054;2023-02-13T13:57:57;101630.25;;;11.09;78.49
35908;BME280;22003;50.320;8.054;2023-02-13T14:00:28;101629.47;;;11.25;77.50
35908;BME280;22003;50.320;8.054;2023-02-13T14:03:22;101625.19;;;11.05;79.13
35908;BME280;22003;50.320;8.054;2023-02-13T14:06:05;101617.91;;;11.08;78.36
35908;BME280;22003;50.320;8.054;2023-02-13T14:11:02;101615.13;;;11.29;76.66
35908;BME280;22003;50.320;8.054;2023-02-13T14:13:37;101608.88;;;11.30;76.37
35908;BME280;22003;50.320;8.054;2023-02-13T14:16:04;101613.94;;;11.34;76.68
35908;BME280;22003;50.320;8.054;2023-02-13T14:18:30;101602.75;;;11.62;75.02
35908;BME280;22003;50.320;8.054;2023-02-13T14:20:59;101598.16;;;11.49;75.94
35908;BME280;22003;50.320;8.054;2023-02-13T14:23:44;101606.97;;;11.67;76.32
35908;BME280;22003;50.320;8.054;2023-02-13T14:26:31;101606.88;;;11.68;76.03
35908;BME280;22003;50.320;8.054;2023-02-13T14:31:56;101605.59;;;11.75;73.55
35908;BME280;22003;50.320;8.054;2023-02-13T14:34:27;101611.84;;;11.74;74.07
35908;BME280;22003;50.320;8.054;2023-02-13T14:39:35;101600.63;;;12.02;72.23
35908;BME280;22003;50.320;8.054;2023-02-13T14:42:03;101586.53;;;11.51;71.02
35908;BME280;22003;50.320;8.054;2023-02-13T14:44:50;101590.09;;;11.68;70.88
35908;BME280;22003;50.320;8.054;2023-02-13T14:47:28;101590.78;;;11.71;72.18
35908;BME280;22003;50.320;8.054;2023-02-13T14:49:56;101577.72;;;11.51;72.66
35908;BME280;22003;50.320;8.054;2023-02-13T14:52:32;101590.84;;;11.70;73.26
35908;BME280;22003;50.320;8.054;2023-02-13T14:55:06;101554.25;;;11.59;70.86
35908;BME280;22003;50.320;8.054;2023-02-13T14:57:44;101576.97;;;11.64;70.83
35908;BME280;22003;50.320;8.054;2023-02-13T15:00:27;101577.91;;;11.63;70.60
35908;BME280;22003;50.320;8.054;2023-02-13T15:03:04;101572.78;;;11.43;69.88
35908;BME280;22003;50.320;8.054;2023-02-13T15:05:33;101571.88;;;11.44;70.04
35908;BME280;22003;50.320;8.054;2023-02-13T15:08:07;101572.03;;;11.41;69.62
35908;BME280;22003;50.320;8.054;2023-02-13T15:10:45;101582.19;;;11.33;70.43
35908;BME280;22003;50.320;8.054;2023-02-13T15:13:33;101558.25;;;11.17;71.39
35908;BME280;22003;50.320;8.054;2023-02-13T15:16:03;101563.63;;;11.16;72.77
35908;BME280;22003;50.320;8.054;2023-02-13T15:18:36;101568.31;;;11.10;72.80
35908;BME280;22003;50.320;8.054;2023-02-13T15:21:04;101558.63;;;10.92;73.16
35908;BME280;22003;50.320;8.054;2023-02-13T15:23:31;101569.72;;;11.00;72.60
35908;BME280;22003;50.320;8.054;2023-02-13T15:26:05;101584.91;;;10.97;73.65
35908;BME280;22003;50.320;8.054;2023-02-13T15:28:31;101576.50;;;10.89;74.32
35908;BME280;22003;50.320;8.054;2023-02-13T15:30:59;101576.88;;;10.81;74.97
35908;BME280;22003;50.320;8.054;2023-02-13T15:33:46;101575.78;;;10.85;74.08
35908;BME280;22003;50.320;8.054;2023-02-13T15:36:24;101570.16;;;10.74;74.15
35908;BME280;22003;50.320;8.054;2023-02-13T15:39:00;101550.53;;;10.78;75.34
35908;BME280;22003;50.320;8.054;2023-02-13T15:41:33;101574.97;;;10.66;75.06
35908;BME280;22003;50.320;8.054;2023-02-13T15:44:00;101567.91;;;10.66;77.45
35908;BME280;22003;50.320;8.054;2023-02-13T15:46:28;101581.06;;;10.68;77.48
35908;BME280;22003;50.320;8.054;2023-02-13T15:48:56;101571.63;;;10.62;77.81
35908;BME280;22003;50.320;8.054;2023-02-13T15:51:27;101587.00;;;10.37;77.89
35908;BME280;22003;50.320;8.054;2023-02-13T15:54:03;101573.09;;;10.31;77.13
35908;BME280;22003;50.320;8.054;2023-02-13T15:56:28;101579.81;;;10.20;77.67
35908;BME280;22003;50.320;8.054;2023-02-13T15:58:55;101584.22;;;9.82;78.61
35908;BME280;22003;50.320;8.054;2023-02-13T16:01:22;101568.34;;;9.42;80.06
35908;BME280;22003;50.320;8.054;2023-02-13T16:03:50;101586.31;;;9.55;79.54
35908;BME280;22003;50.320;8.054;2023-02-13T16:06:19;101580.69;;;9.23;79.06
35908;BME280;22003;50.320;8.054;2023-02-13T16:08:51;101582.81;;;8.93;80.24
35908;BME280;22003;50.320;8.054;2023-02-13T16:11:24;101576.47;;;8.55;81.64
35908;BME280;22003;50.320;8.054;2023-02-13T16:14:06;101590.47;;;8.35;82.39
35908;BME280;22003;50.320;8.054;2023-02-13T16:16:40;101587.16;;;8.06;83.48
35908;BME280;22003;50.320;8.054;2023-02-13T16:19:19;101598.38;;;7.89;84.35
35908;BME280;22003;50.320;8.054;2023-02-13T16:21:47;101596.50;;;7.68;84.57
35908;BME280;22003;50.320;8.054;2023-02-13T16:24:14;101598.84;;;7.52;85.35
35908;BME280;22003;50.320;8.054;2023-02-13T16:26:41;101598.66;;;7.33;85.51
35908;BME280;22003;50.320;8.054;2023-02-13T16:29:09;101609.72;;;7.18;86.19
35908;BME280;22003;50.320;8.054;2023-02-13T16:31:37;101593.19;;;6.86;86.65
35908;BME280;22003;50.320;8.054;2023-02-13T16:34:14;101607.34;;;6.84;87.32
35908;BME280;22003;50.320;8.054;2023-02-13T16:36:39;101586.13;;;6.60;88.25
35908;BME280;22003;50.320;8.054;2023-02-13T16:39:18;101597.94;;;6.49;88.43
35908;BME280;22003;50.320;8.054;2023-02-13T16:41:44;101607.91;;;6.39;89.44
35908;BME280;22003;50.320;8.054;2023-02-13T16:44:24;101608.84;;;6.37;90.19
35908;BME280;22003;50.320;8.054;2023-02-13T16:46:55;101618.47;;;6.38;90.46
35908;BME280;22003;50.320;8.054;2023-02-13T16:49:22;101619.28;;;6.40;90.95
35908;BME280;22003;50.320;8.054;2023-02-13T16:56:55;101612.78;;;6.23;89.22
35908;BME280;22003;50.320;8.054;2023-02-13T17:02:11;101620.72;;;5.91;90.42
35908;BME280;22003;50.320;8.054;2023-02-13T17:04:37;101619.72;;;5.64;91.01
35908;BME280;22003;50.320;8.054;2023-02-13T17:07:03;101623.38;;;5.58;91.95
35908;BME280;22003;50.320;8.054;2023-02-13T17:09:29;101615.00;;;5.44;93.05
35908;BME280;22003;50.320;8.054;2023-02-13T17:11:54;101634.81;;;5.57;93.67
35908;BME280;22003;50.320;8.054;2023-02-13T17:14:19;101620.41;;;5.38;93.10
35908;BME280;22003;50.320;8.054;2023-02-13T17:16:46;101648.59;;;5.33;94.75
35908;BME280;22003;50.320;8.054;2023-02-13T17:19:11;101647.88;;;5.27;95.18
35908;BME280;22003;50.320;8.054;2023-02-13T17:21:37;101641.06;;;5.19;95.48
35908;BME280;22003;50.320;8.054;2023-02-13T17:24:02;101633.94;;;4.90;95.65
35908;BME280;22003;50.320;8.054;2023-02-13T17:26:27;101648.16;;;4.80;96.31
35908;BME280;22003;50.320;8.054;2023-02-13T17:28:53;101641.22;;;4.77;97.59
35908;BME280;22003;50.320;8.054;2023-02-13T17:31:18;101649.75;;;4.87;97.54
35908;BME280;22003;50.320;8.054;2023-02-13T17:33:43;101637.91;;;5.04;96.18
35908;BME280;22003;50.320;8.054;2023-02-13T17:36:11;101642.66;;;4.90;96.09
35908;BME280;22003;50.320;8.054;2023-02-13T17:38:36;101629.69;;;4.83;96.25
35908;BME280;22003;50.320;8.054;2023-02-13T17:41:01;101648.81;;;4.89;96.15
35908;BME280;22003;50.320;8.054;2023-02-13T17:43:27;101629.38;;;4.59;96.49
35908;BME280;22003;50.320;8.054;2023-02-13T17:45:54;101634.59;;;4.61;97.72
35908;BME280;22003;50.320;8.054;2023-02-13T17:48:19;101624.78;;;4.69;97.74
35908;BME280;22003;50.320;8.054;2023-02-13T17:50:45;101630.84;;;4.72;96.95
35908;BME280;22003;50.320;8.054;2023-02-13T17:53:19;101643.13;;;4.70;97.05
35908;BME280;22003;50.320;8.054;2023-02-13T17:55:45;101609.44;;;4.52;97.03
35908;BME280;22003;50.320;8.054;2023-02-13T17:58:11;101633.56;;;4.68;96.73
35908;BME280;22003;50.320;8.054;2023-02-13T18:00:36;101627.72;;;4.57;96.80
35908;BME280;22003;50.320;8.054;2023-02-13T18:03:01;101624.44;;;4.47;98.23
35908;BME280;22003;50.320;8.054;2023-02-13T18:05:27;101623.56;;;4.46;98.88
35908;BME280;22003;50.320;8.054;2023-02-13T18:07:52;101617.78;;;4.31;99.35
35908;BME280;22003;50.320;8.054;2023-02-13T18:10:21;101642.13;;;4.39;99.28
35908;BME280;22003;50.320;8.054;2023-02-13T18:12:48;101651.81;;;4.35;99.50
35908;BME280;22003;50.320;8.054;2023-02-13T18:15:14;101624.19;;;4.19;99.16
35908;BME280;22003;50.320;8.054;2023-02-13T18:17:40;101651.91;;;4.31;99.21
35908;BME280;22003;50.320;8.054;2023-02-13T18:20:09;101650.47;;;4.16;99.93
35908;BME280;22003;50.320;8.054;2023-02-13T18:22:34;101623.16;;;3.84;99.35
35908;BME280;22003;50.320;8.054;2023-02-13T18:25:01;101645.78;;;3.90;100.00
35908;BME280;22003;50.320;8.054;2023-02-13T18:27:26;101654.34;;;3.98;100.00
35908;BME280;22003;50.320;8.054;2023-02-13T18:29:53;101629.44;;;3.76;100.00
35908;BME280;22003;50.320;8.054;2023-02-13T18:32:19;101632.94;;;3.76;100.00
35908;BME280;22003;50.320;8.054;2023-02-13T18:34:44;101649.50;;;3.78;100.00
35908;BME280;22003;50.320;8.054;2023-02-13T18:37:11;101662.03;;;3.61;100.00
35908;BME280;22003;50.320;8.054;2023-02-13T18:39:36;101647.25;;;3.58;100.00
35908;BME280;22003;50.320;8.054;2023-02-13T18:42:01;101653.63;;;3.45;100.00
35908;BME280;22003;50.320;8.054;2023-02-13T18:44:26;101645.09;;;3.34;100.00
35908;BME280;22003;50.320;8.054;2023-02-13T18:46:52;101660.41;;;3.57;100.00
35908;BME280;22003;50.320;8.054;2023-02-13T18:49:17;101665.19;;;3.32;100.00
35908;BME280;22003;50.320;8.054;2023-02-13T18:51:42;101667.69;;;2.87;100.00
35908;BME280;22003;50.320;8.054;2023-02-13T18:54:08;101664.34;;;2.79;100.00
35908;BME280;22003;50.320;8.054;2023-02-13T18:56:34;101649.59;;;2.73;100.00
35908;BME280;22003;50.320;8.054;2023-02-13T18:58:59;101646.03;;;2.76;100.00
35908;BME280;22003;50.320;8.054;2023-02-13T19:01:24;101664.25;;;2.85;100.00
35908;BME280;22003;50.320;8.054;2023-02-13T19:03:51;101660.53;;;2.98;100.00
35908;BME280;22003;50.320;8.054;2023-02-13T19:06:19;101657.81;;;3.04;100.00
35908;BME280;22003;50.320;8.054;2023-02-13T19:08:45;101635.53;;;2.79;100.00
35908;BME280;22003;50.320;8.054;2023-02-13T19:11:12;101635.81;;;2.62;100.00
35908;BME280;22003;50.320;8.054;2023-02-13T19:13:38;101631.69;;;2.44;100.00
35908;BME280;22003;50.320;8.054;2023-02-13T19:16:05;101624.09;;;2.26;100.00
35908;BME280;22003;50.320;8.054;2023-02-13T19:18:31;101641.03;;;2.60;100.00
35908;BME280;22003;50.320;8.054;2023-02-13T19:21:00;101650.25;;;2.86;100.00
35908;BME280;22003;50.320;8.054;2023-02-13T19:23:26;101650.38;;;2.77;100.00